sensor_id;sensor_type;location;lat;lon;timestamp;P1;durP1;ratioP1;P2;durP2;ratioP2
21215;SDS011;10765;50.954;5.322;2023-05-07T00:00:47;6.73;;;6.03;;
21215;SDS011;10765;50.954;5.322;2023-05-07T00:03:14;6.53;;;5.93;;
21215;SDS011;10765;50.954;5.322;2023-05-07T00:05:41;6.77;;;5.67;;
21215;SDS011;10765;50.954;5.322;2023-05-07T00:08:10;5.63;;;5.17;;
21215;SDS011;10765;50.954;5.322;2023-05-07T00:10:37;6.00;;;5.50;;
21215;SDS011;10765;50.954;5.322;2023-05-07T00:13:04;8.03;;;5.80;;
21215;SDS011;10765;50.954;5.322;2023-05-07T00:15:31;6.77;;;5.77;;
21215;SDS011;10765;50.954;5.322;2023-05-07T00:17:57;7.07;;;6.37;;
21215;SDS011;10765;50.954;5.322;2023-05-07T00:20:24;6.33;;;5.77;;
21215;SDS011;10765;50.954;5.322;2023-05-07T00:22:51;7.37;;;6.60;;
21215;SDS011;10765;50.954;5.322;2023-05-07T00:25:20;6.83;;;6.23;;
21215;SDS011;10765;50.954;5.322;2023-05-07T00:27:46;7.17;;;6.10;;
21215;SDS011;10765;50.954;5.322;2023-05-07T00:30:14;6.50;;;6.00;;
21215;SDS011;10765;50.954;5.322;2023-05-07T00:32:41;6.97;;;6.37;;
21215;SDS011;10765;50.954;5.322;2023-05-07T00:35:10;6.90;;;6.30;;
21215;SDS011;10765;50.954;5.322;2023-05-07T00:37:37;7.07;;;6.37;;
21215;SDS011;10765;50.954;5.322;2023-05-07T00:40:05;6.53;;;5.93;;
21215;SDS011;10765;50.954;5.322;2023-05-07T00:42:34;7.10;;;6.33;;
21215;SDS011;10765;50.954;5.322;2023-05-07T00:45:01;9.00;;;6.50;;
21215;SDS011;10765;50.954;5.322;2023-05-07T00:47:29;7.33;;;6.63;;
21215;SDS011;10765;50.954;5.322;2023-05-07T00:49:56;6.70;;;6.03;;
21215;SDS011;10765;50.954;5.322;2023-05-07T00:52:23;7.40;;;6.70;;
21215;SDS011;10765;50.954;5.322;2023-05-07T00:54:52;7.43;;;6.83;;
21215;SDS011;10765;50.954;5.322;2023-05-07T00:57:20;7.37;;;6.70;;
21215;SDS011;10765;50.954;5.322;2023-05-07T00:59:49;7.53;;;6.93;;
21215;SDS011;10765;50.954;5.322;2023-05-07T01:02:17;7.40;;;6.70;;
21215;SDS011;10765;50.954;5.322;2023-05-07T01:04:44;7.43;;;6.53;;
21215;SDS011;10765;50.954;5.322;2023-05-07T01:07:11;8.17;;;7.37;;
21215;SDS011;10765;50.954;5.322;2023-05-07T01:09:38;7.60;;;6.87;;
21215;SDS011;10765;50.954;5.322;2023-05-07T01:12:06;7.30;;;6.70;;
21215;SDS011;10765;50.954;5.322;2023-05-07T01:14:34;7.53;;;6.83;;
21215;SDS011;10765;50.954;5.322;2023-05-07T01:17:02;7.47;;;6.73;;
21215;SDS011;10765;50.954;5.322;2023-05-07T01:19:29;6.77;;;6.20;;
21215;SDS011;10765;50.954;5.322;2023-05-07T01:22:01;7.80;;;7.20;;
21215;SDS011;10765;50.954;5.322;2023-05-07T01:24:31;6.73;;;6.13;;
21215;SDS011;10765;50.954;5.322;2023-05-07T01:26:59;6.97;;;6.37;;
21215;SDS011;10765;50.954;5.322;2023-05-07T01:29:27;7.93;;;7.23;;
21215;SDS011;10765;50.954;5.322;2023-05-07T01:31:54;8.07;;;7.37;;
21215;SDS011;10765;50.954;5.322;2023-05-07T01:34:24;7.77;;;6.97;;
21215;SDS011;10765;50.954;5.322;2023-05-07T01:36:53;7.23;;;6.57;;
21215;SDS011;10765;50.954;5.322;2023-05-07T01:39:23;8.30;;;7.50;;
21215;SDS011;10765;50.954;5.322;2023-05-07T01:41:53;7.53;;;6.77;;
21215;SDS011;10765;50.954;5.322;2023-05-07T01:44:21;8.40;;;7.60;;
21215;SDS011;10765;50.954;5.322;2023-05-07T01:46:48;7.03;;;6.43;;
21215;SDS011;10765;50.954;5.322;2023-05-07T01:49:15;12.43;;;10.77;;
21215;SDS011;10765;50.954;5.322;2023-05-07T01:51:43;14.03;;;12.63;;
21215;SDS011;10765;50.954;5.322;2023-05-07T01:54:10;8.13;;;7.40;;
21215;SDS011;10765;50.954;5.322;2023-05-07T01:56:37;12.10;;;10.73;;
21215;SDS011;10765;50.954;5.322;2023-05-07T01:59:05;15.93;;;14.23;;
21215;SDS011;10765;50.954;5.322;2023-05-07T02:01:32;16.33;;;14.53;;
21215;SDS011;10765;50.954;5.322;2023-05-07T02:03:59;16.17;;;14.43;;
21215;SDS011;10765;50.954;5.322;2023-05-07T02:06:26;23.17;;;20.73;;
21215;SDS011;10765;50.954;5.322;2023-05-07T02:08:52;15.07;;;13.67;;
21215;SDS011;10765;50.954;5.322;2023-05-07T02:11:19;25.13;;;16.67;;
21215;SDS011;10765;50.954;5.322;2023-05-07T02:13:46;9.90;;;8.93;;
21215;SDS011;10765;50.954;5.322;2023-05-07T02:16:14;9.37;;;8.43;;
21215;SDS011;10765;50.954;5.322;2023-05-07T02:18:41;9.50;;;8.60;;
21215;SDS011;10765;50.954;5.322;2023-05-07T02:21:08;9.53;;;8.63;;
21215;SDS011;10765;50.954;5.322;2023-05-07T02:23:35;8.30;;;7.60;;
21215;SDS011;10765;50.954;5.322;2023-05-07T02:26:03;8.47;;;7.63;;
21215;SDS011;10765;50.954;5.322;2023-05-07T02:28:30;8.63;;;7.90;;
21215;SDS011;10765;50.954;5.322;2023-05-07T02:30:57;7.80;;;6.93;;
21215;SDS011;10765;50.954;5.322;2023-05-07T02:33:26;7.60;;;7.00;;
21215;SDS011;10765;50.954;5.322;2023-05-07T02:35:53;7.87;;;6.77;;
21215;SDS011;10765;50.954;5.322;2023-05-07T02:38:20;8.10;;;7.40;;
21215;SDS011;10765;50.954;5.322;2023-05-07T02:40:48;8.50;;;7.70;;
21215;SDS011;10765;50.954;5.322;2023-05-07T02:43:15;10.43;;;9.47;;
21215;SDS011;10765;50.954;5.322;2023-05-07T02:45:42;45.67;;;40.70;;
21215;SDS011;10765;50.954;5.322;2023-05-07T02:48:09;56.23;;;50.13;;
21215;SDS011;10765;50.954;5.322;2023-05-07T02:50:37;50.77;;;45.37;;
21215;SDS011;10765;50.954;5.322;2023-05-07T02:53:04;18.53;;;16.63;;
21215;SDS011;10765;50.954;5.322;2023-05-07T02:55:31;9.57;;;8.77;;
21215;SDS011;10765;50.954;5.322;2023-05-07T02:57:58;8.60;;;7.73;;
21215;SDS011;10765;50.954;5.322;2023-05-07T03:00:25;9.00;;;8.20;;
21215;SDS011;10765;50.954;5.322;2023-05-07T03:02:52;9.10;;;8.27;;
21215;SDS011;10765;50.954;5.322;2023-05-07T03:05:19;8.77;;;7.87;;
21215;SDS011;10765;50.954;5.322;2023-05-07T03:07:47;9.40;;;8.50;;
21215;SDS011;10765;50.954;5.322;2023-05-07T03:10:14;13.13;;;11.33;;
21215;SDS011;10765;50.954;5.322;2023-05-07T03:12:41;10.03;;;9.13;;
21215;SDS011;10765;50.954;5.322;2023-05-07T03:15:08;18.80;;;17.10;;
21215;SDS011;10765;50.954;5.322;2023-05-07T03:17:36;12.20;;;11.10;;
21215;SDS011;10765;50.954;5.322;2023-05-07T03:20:03;11.83;;;10.60;;
21215;SDS011;10765;50.954;5.322;2023-05-07T03:22:32;10.20;;;9.13;;
21215;SDS011;10765;50.954;5.322;2023-05-07T03:25:00;9.57;;;8.70;;
21215;SDS011;10765;50.954;5.322;2023-05-07T03:27:27;9.90;;;8.90;;
21215;SDS011;10765;50.954;5.322;2023-05-07T03:29:54;10.30;;;9.30;;
21215;SDS011;10765;50.954;5.322;2023-05-07T03:32:20;9.77;;;8.93;;
21215;SDS011;10765;50.954;5.322;2023-05-07T03:34:47;10.00;;;9.10;;
21215;SDS011;10765;50.954;5.322;2023-05-07T03:37:14;10.90;;;9.80;;
21215;SDS011;10765;50.954;5.322;2023-05-07T03:39:41;9.60;;;8.73;;
21215;SDS011;10765;50.954;5.322;2023-05-07T03:42:09;9.60;;;8.70;;
21215;SDS011;10765;50.954;5.322;2023-05-07T03:44:36;8.97;;;8.17;;
21215;SDS011;10765;50.954;5.322;2023-05-07T03:47:03;10.37;;;9.37;;
21215;SDS011;10765;50.954;5.322;2023-05-07T03:49:30;10.40;;;9.40;;
21215;SDS011;10765;50.954;5.322;2023-05-07T03:51:57;9.57;;;8.70;;
21215;SDS011;10765;50.954;5.322;2023-05-07T03:54:24;9.57;;;8.77;;
21215;SDS011;10765;50.954;5.322;2023-05-07T03:56:51;10.20;;;9.30;;
21215;SDS011;10765;50.954;5.322;2023-05-07T03:59:19;9.90;;;8.97;;
21215;SDS011;10765;50.954;5.322;2023-05-07T04:01:46;9.43;;;8.60;;
21215;SDS011;10765;50.954;5.322;2023-05-07T04:04:13;10.70;;;9.60;;
21215;SDS011;10765;50.954;5.322;2023-05-07T04:06:40;9.43;;;8.53;;
21215;SDS011;10765;50.954;5.322;2023-05-07T04:09:07;8.87;;;8.13;;
21215;SDS011;10765;50.954;5.322;2023-05-07T04:11:34;9.13;;;8.37;;
21215;SDS011;10765;50.954;5.322;2023-05-07T04:14:02;8.50;;;7.77;;
21215;SDS011;10765;50.954;5.322;2023-05-07T04:16:30;9.40;;;8.50;;
21215;SDS011;10765;50.954;5.322;2023-05-07T04:18:57;10.33;;;9.20;;
21215;SDS011;10765;50.954;5.322;2023-05-07T04:21:23;10.97;;;9.87;;
21215;SDS011;10765;50.954;5.322;2023-05-07T04:23:51;9.90;;;9.00;;
21215;SDS011;10765;50.954;5.322;2023-05-07T04:26:18;10.77;;;9.77;;
21215;SDS011;10765;50.954;5.322;2023-05-07T04:28:46;11.23;;;10.10;;
21215;SDS011;10765;50.954;5.322;2023-05-07T04:31:13;11.07;;;10.07;;
21215;SDS011;10765;50.954;5.322;2023-05-07T04:33:41;10.77;;;9.70;;
21215;SDS011;10765;50.954;5.322;2023-05-07T04:36:08;10.60;;;9.53;;
21215;SDS011;10765;50.954;5.322;2023-05-07T04:38:35;9.63;;;8.73;;
21215;SDS011;10765;50.954;5.322;2023-05-07T04:41:04;9.57;;;8.63;;
21215;SDS011;10765;50.954;5.322;2023-05-07T04:43:32;9.20;;;8.40;;
21215;SDS011;10765;50.954;5.322;2023-05-07T04:45:59;10.03;;;9.10;;
21215;SDS011;10765;50.954;5.322;2023-05-07T04:48:26;9.40;;;8.60;;
21215;SDS011;10765;50.954;5.322;2023-05-07T04:50:55;10.13;;;9.03;;
21215;SDS011;10765;50.954;5.322;2023-05-07T04:53:22;9.73;;;8.80;;
21215;SDS011;10765;50.954;5.322;2023-05-07T04:55:54;9.50;;;8.50;;
21215;SDS011;10765;50.954;5.322;2023-05-07T04:58:21;9.57;;;8.70;;
21215;SDS011;10765;50.954;5.322;2023-05-07T05:00:48;9.23;;;8.23;;
21215;SDS011;10765;50.954;5.322;2023-05-07T05:03:15;8.57;;;7.77;;
21215;SDS011;10765;50.954;5.322;2023-05-07T05:05:42;8.37;;;7.40;;
21215;SDS011;10765;50.954;5.322;2023-05-07T05:08:11;8.30;;;7.53;;
21215;SDS011;10765;50.954;5.322;2023-05-07T05:10:38;8.37;;;7.67;;
21215;SDS011;10765;50.954;5.322;2023-05-07T05:13:06;9.10;;;8.20;;
21215;SDS011;10765;50.954;5.322;2023-05-07T05:15:33;8.10;;;7.30;;
21215;SDS011;10765;50.954;5.322;2023-05-07T05:18:00;8.43;;;7.43;;
21215;SDS011;10765;50.954;5.322;2023-05-07T05:20:26;8.47;;;7.67;;
21215;SDS011;10765;50.954;5.322;2023-05-07T05:22:53;8.53;;;7.73;;
21215;SDS011;10765;50.954;5.322;2023-05-07T05:25:22;7.90;;;7.17;;
21215;SDS011;10765;50.954;5.322;2023-05-07T05:27:48;7.83;;;7.03;;
21215;SDS011;10765;50.954;5.322;2023-05-07T05:30:15;8.70;;;8.00;;
21215;SDS011;10765;50.954;5.322;2023-05-07T05:32:42;8.17;;;7.37;;
21215;SDS011;10765;50.954;5.322;2023-05-07T05:35:09;8.30;;;7.50;;
21215;SDS011;10765;50.954;5.322;2023-05-07T05:37:36;10.43;;;8.00;;
21215;SDS011;10765;50.954;5.322;2023-05-07T05:40:03;8.77;;;7.90;;
21215;SDS011;10765;50.954;5.322;2023-05-07T05:42:32;9.93;;;8.80;;
21215;SDS011;10765;50.954;5.322;2023-05-07T05:44:59;8.77;;;7.90;;
21215;SDS011;10765;50.954;5.322;2023-05-07T05:47:26;9.40;;;8.50;;
21215;SDS011;10765;50.954;5.322;2023-05-07T05:49:53;8.87;;;8.00;;
21215;SDS011;10765;50.954;5.322;2023-05-07T05:52:19;9.17;;;8.37;;
21215;SDS011;10765;50.954;5.322;2023-05-07T05:54:48;8.93;;;8.13;;
21215;SDS011;10765;50.954;5.322;2023-05-07T05:57:15;8.97;;;8.07;;
21215;SDS011;10765;50.954;5.322;2023-05-07T05:59:44;8.57;;;7.77;;
21215;SDS011;10765;50.954;5.322;2023-05-07T06:02:12;8.00;;;7.23;;
21215;SDS011;10765;50.954;5.322;2023-05-07T06:04:39;7.70;;;7.03;;
21215;SDS011;10765;50.954;5.322;2023-05-07T06:07:07;8.27;;;7.57;;
21215;SDS011;10765;50.954;5.322;2023-05-07T06:09:34;7.90;;;7.20;;
21215;SDS011;10765;50.954;5.322;2023-05-07T06:12:01;7.57;;;6.87;;
21215;SDS011;10765;50.954;5.322;2023-05-07T06:14:28;8.00;;;7.37;;
21215;SDS011;10765;50.954;5.322;2023-05-07T06:16:56;8.00;;;7.27;;
21215;SDS011;10765;50.954;5.322;2023-05-07T06:19:23;6.90;;;6.30;;
21215;SDS011;10765;50.954;5.322;2023-05-07T06:21:51;8.30;;;7.60;;
21215;SDS011;10765;50.954;5.322;2023-05-07T06:24:18;8.33;;;7.37;;
21215;SDS011;10765;50.954;5.322;2023-05-07T06:26:45;7.50;;;6.90;;
21215;SDS011;10765;50.954;5.322;2023-05-07T06:29:12;8.67;;;7.93;;
21215;SDS011;10765;50.954;5.322;2023-05-07T06:31:39;8.40;;;7.60;;
21215;SDS011;10765;50.954;5.322;2023-05-07T06:34:07;7.50;;;6.90;;
21215;SDS011;10765;50.954;5.322;2023-05-07T06:36:35;7.43;;;6.73;;
21215;SDS011;10765;50.954;5.322;2023-05-07T06:39:01;7.10;;;6.50;;
21215;SDS011;10765;50.954;5.322;2023-05-07T06:41:28;6.90;;;6.30;;
21215;SDS011;10765;50.954;5.322;2023-05-07T06:43:55;6.73;;;6.10;;
21215;SDS011;10765;50.954;5.322;2023-05-07T06:46:22;6.93;;;6.23;;
21215;SDS011;10765;50.954;5.322;2023-05-07T06:48:49;6.43;;;5.87;;
21215;SDS011;10765;50.954;5.322;2023-05-07T06:51:18;6.30;;;5.73;;
21215;SDS011;10765;50.954;5.322;2023-05-07T06:53:45;7.87;;;6.00;;
21215;SDS011;10765;50.954;5.322;2023-05-07T06:56:12;6.77;;;5.90;;
21215;SDS011;10765;50.954;5.322;2023-05-07T06:58:39;6.83;;;6.20;;
21215;SDS011;10765;50.954;5.322;2023-05-07T07:01:06;6.47;;;5.73;;
21215;SDS011;10765;50.954;5.322;2023-05-07T07:03:33;5.67;;;5.17;;
21215;SDS011;10765;50.954;5.322;2023-05-07T07:06:00;5.90;;;5.07;;
21215;SDS011;10765;50.954;5.322;2023-05-07T07:08:29;5.97;;;5.40;;
21215;SDS011;10765;50.954;5.322;2023-05-07T07:10:56;6.43;;;5.60;;
21215;SDS011;10765;50.954;5.322;2023-05-07T07:13:23;4.70;;;4.30;;
21215;SDS011;10765;50.954;5.322;2023-05-07T07:15:51;5.87;;;5.37;;
21215;SDS011;10765;50.954;5.322;2023-05-07T07:18:18;5.57;;;4.97;;
21215;SDS011;10765;50.954;5.322;2023-05-07T07:20:45;4.97;;;4.43;;
21215;SDS011;10765;50.954;5.322;2023-05-07T07:23:12;5.30;;;4.53;;
21215;SDS011;10765;50.954;5.322;2023-05-07T07:25:40;6.07;;;4.80;;
21215;SDS011;10765;50.954;5.322;2023-05-07T07:28:07;6.07;;;5.13;;
21215;SDS011;10765;50.954;5.322;2023-05-07T07:30:34;5.37;;;4.80;;
21215;SDS011;10765;50.954;5.322;2023-05-07T07:33:01;6.20;;;4.83;;
21215;SDS011;10765;50.954;5.322;2023-05-07T07:35:28;5.57;;;5.07;;
21215;SDS011;10765;50.954;5.322;2023-05-07T07:37:55;5.63;;;4.80;;
21215;SDS011;10765;50.954;5.322;2023-05-07T07:40:22;6.20;;;5.60;;
21215;SDS011;10765;50.954;5.322;2023-05-07T07:42:51;7.00;;;4.90;;
21215;SDS011;10765;50.954;5.322;2023-05-07T07:45:19;5.00;;;4.53;;
21215;SDS011;10765;50.954;5.322;2023-05-07T07:47:46;5.50;;;4.40;;
21215;SDS011;10765;50.954;5.322;2023-05-07T07:50:13;5.10;;;4.60;;
21215;SDS011;10765;50.954;5.322;2023-05-07T07:52:40;5.13;;;4.63;;
21215;SDS011;10765;50.954;5.322;2023-05-07T07:55:07;5.13;;;4.67;;
21215;SDS011;10765;50.954;5.322;2023-05-07T07:57:34;4.73;;;4.33;;
21215;SDS011;10765;50.954;5.322;2023-05-07T08:00:03;5.60;;;4.90;;
21215;SDS011;10765;50.954;5.322;2023-05-07T08:02:32;5.63;;;4.90;;
21215;SDS011;10765;50.954;5.322;2023-05-07T08:04:59;4.90;;;4.27;;
21215;SDS011;10765;50.954;5.322;2023-05-07T08:07:26;5.70;;;5.10;;
21215;SDS011;10765;50.954;5.322;2023-05-07T08:09:53;5.57;;;4.50;;
21215;SDS011;10765;50.954;5.322;2023-05-07T08:12:19;4.67;;;4.27;;
21215;SDS011;10765;50.954;5.322;2023-05-07T08:14:46;4.60;;;4.20;;
21215;SDS011;10765;50.954;5.322;2023-05-07T08:17:15;5.00;;;3.90;;
21215;SDS011;10765;50.954;5.322;2023-05-07T08:19:42;5.77;;;4.20;;
21215;SDS011;10765;50.954;5.322;2023-05-07T08:22:09;5.20;;;3.80;;
21215;SDS011;10765;50.954;5.322;2023-05-07T08:24:36;4.57;;;4.07;;
21215;SDS011;10765;50.954;5.322;2023-05-07T08:27:03;5.07;;;4.07;;
21215;SDS011;10765;50.954;5.322;2023-05-07T08:29:29;6.03;;;4.33;;
21215;SDS011;10765;50.954;5.322;2023-05-07T08:31:56;4.93;;;4.00;;
21215;SDS011;10765;50.954;5.322;2023-05-07T08:34:24;4.90;;;4.43;;
21215;SDS011;10765;50.954;5.322;2023-05-07T08:36:51;6.23;;;4.60;;
21215;SDS011;10765;50.954;5.322;2023-05-07T08:39:18;5.93;;;4.13;;
21215;SDS011;10765;50.954;5.322;2023-05-07T08:41:45;6.57;;;4.60;;
21215;SDS011;10765;50.954;5.322;2023-05-07T08:44:14;5.07;;;4.40;;
21215;SDS011;10765;50.954;5.322;2023-05-07T08:46:43;4.70;;;4.20;;
21215;SDS011;10765;50.954;5.322;2023-05-07T08:49:13;7.13;;;4.50;;
21215;SDS011;10765;50.954;5.322;2023-05-07T08:51:42;4.77;;;4.23;;
21215;SDS011;10765;50.954;5.322;2023-05-07T08:54:09;5.33;;;4.83;;
21215;SDS011;10765;50.954;5.322;2023-05-07T08:56:37;7.03;;;5.27;;
21215;SDS011;10765;50.954;5.322;2023-05-07T08:59:05;8.83;;;5.23;;
21215;SDS011;10765;50.954;5.322;2023-05-07T09:01:32;6.77;;;5.00;;
21215;SDS011;10765;50.954;5.322;2023-05-07T09:04:00;8.03;;;4.40;;
21215;SDS011;10765;50.954;5.322;2023-05-07T09:06:27;6.50;;;4.37;;
21215;SDS011;10765;50.954;5.322;2023-05-07T09:08:56;5.97;;;4.73;;
21215;SDS011;10765;50.954;5.322;2023-05-07T09:11:23;6.13;;;4.73;;
21215;SDS011;10765;50.954;5.322;2023-05-07T09:13:52;5.80;;;5.00;;
21215;SDS011;10765;50.954;5.322;2023-05-07T09:16:21;5.60;;;4.70;;
21215;SDS011;10765;50.954;5.322;2023-05-07T09:18:50;7.13;;;5.00;;
21215;SDS011;10765;50.954;5.322;2023-05-07T09:21:18;6.93;;;5.33;;
21215;SDS011;10765;50.954;5.322;2023-05-07T09:23:47;4.90;;;4.40;;
21215;SDS011;10765;50.954;5.322;2023-05-07T09:26:17;5.53;;;5.00;;
21215;SDS011;10765;50.954;5.322;2023-05-07T09:28:47;6.67;;;4.70;;
21215;SDS011;10765;50.954;5.322;2023-05-07T09:31:14;5.93;;;5.33;;
21215;SDS011;10765;50.954;5.322;2023-05-07T09:33:41;6.30;;;5.20;;
21215;SDS011;10765;50.954;5.322;2023-05-07T09:36:08;8.33;;;5.60;;
21215;SDS011;10765;50.954;5.322;2023-05-07T09:38:36;5.83;;;5.30;;
21215;SDS011;10765;50.954;5.322;2023-05-07T09:41:04;5.80;;;5.20;;
21215;SDS011;10765;50.954;5.322;2023-05-07T09:43:33;6.90;;;5.63;;
21215;SDS011;10765;50.954;5.322;2023-05-07T09:46:06;9.60;;;5.17;;
21215;SDS011;10765;50.954;5.322;2023-05-07T09:48:37;5.57;;;5.00;;
21215;SDS011;10765;50.954;5.322;2023-05-07T09:51:06;6.23;;;5.63;;
21215;SDS011;10765;50.954;5.322;2023-05-07T09:53:41;5.93;;;5.30;;
21215;SDS011;10765;50.954;5.322;2023-05-07T09:56:10;6.33;;;5.03;;
21215;SDS011;10765;50.954;5.322;2023-05-07T09:58:40;7.57;;;4.60;;
21215;SDS011;10765;50.954;5.322;2023-05-07T10:01:08;6.50;;;4.50;;
21215;SDS011;10765;50.954;5.322;2023-05-07T10:03:37;6.87;;;4.60;;
21215;SDS011;10765;50.954;5.322;2023-05-07T10:06:06;5.40;;;4.30;;
21215;SDS011;10765;50.954;5.322;2023-05-07T10:08:34;7.07;;;5.07;;
21215;SDS011;10765;50.954;5.322;2023-05-07T10:11:02;6.87;;;5.37;;
21215;SDS011;10765;50.954;5.322;2023-05-07T10:13:31;6.10;;;5.50;;
21215;SDS011;10765;50.954;5.322;2023-05-07T10:16:01;8.20;;;5.27;;
21215;SDS011;10765;50.954;5.322;2023-05-07T10:18:29;6.43;;;5.10;;
21215;SDS011;10765;50.954;5.322;2023-05-07T10:20:59;7.50;;;5.33;;
21215;SDS011;10765;50.954;5.322;2023-05-07T10:23:28;7.57;;;5.33;;
21215;SDS011;10765;50.954;5.322;2023-05-07T10:25:57;6.30;;;4.57;;
21215;SDS011;10765;50.954;5.322;2023-05-07T10:28:25;6.40;;;5.40;;
21215;SDS011;10765;50.954;5.322;2023-05-07T10:30:58;8.77;;;5.90;;
21215;SDS011;10765;50.954;5.322;2023-05-07T10:33:38;7.67;;;5.67;;
21215;SDS011;10765;50.954;5.322;2023-05-07T10:36:06;8.80;;;6.53;;
21215;SDS011;10765;50.954;5.322;2023-05-07T10:38:33;8.03;;;6.13;;
21215;SDS011;10765;50.954;5.322;2023-05-07T10:41:00;10.03;;;6.70;;
21215;SDS011;10765;50.954;5.322;2023-05-07T10:43:38;8.07;;;6.83;;
21215;SDS011;10765;50.954;5.322;2023-05-07T10:46:14;9.37;;;6.97;;
21215;SDS011;10765;50.954;5.322;2023-05-07T10:51:36;11.30;;;6.60;;
21215;SDS011;10765;50.954;5.322;2023-05-07T10:56:51;9.47;;;7.87;;
21215;SDS011;10765;50.954;5.322;2023-05-07T10:59:31;12.03;;;9.03;;
21215;SDS011;10765;50.954;5.322;2023-05-07T11:02:08;10.27;;;6.67;;
21215;SDS011;10765;50.954;5.322;2023-05-07T11:04:36;7.90;;;6.27;;
21215;SDS011;10765;50.954;5.322;2023-05-07T11:10:00;8.63;;;6.30;;
21215;SDS011;10765;50.954;5.322;2023-05-07T11:12:49;9.93;;;5.87;;
21215;SDS011;10765;50.954;5.322;2023-05-07T11:18:09;10.20;;;6.83;;
21215;SDS011;10765;50.954;5.322;2023-05-07T11:20:53;9.53;;;5.57;;
21215;SDS011;10765;50.954;5.322;2023-05-07T11:26:42;7.93;;;5.53;;
21215;SDS011;10765;50.954;5.322;2023-05-07T11:29:14;7.60;;;5.60;;
21215;SDS011;10765;50.954;5.322;2023-05-07T11:31:42;6.63;;;5.30;;
21215;SDS011;10765;50.954;5.322;2023-05-07T11:34:10;9.50;;;6.00;;
21215;SDS011;10765;50.954;5.322;2023-05-07T11:36:41;8.97;;;6.87;;
21215;SDS011;10765;50.954;5.322;2023-05-07T11:39:25;7.53;;;6.67;;
21215;SDS011;10765;50.954;5.322;2023-05-07T11:41:53;8.80;;;6.63;;
21215;SDS011;10765;50.954;5.322;2023-05-07T11:44:20;12.97;;;6.87;;
21215;SDS011;10765;50.954;5.322;2023-05-07T11:46:47;8.83;;;6.63;;
21215;SDS011;10765;50.954;5.322;2023-05-07T11:49:16;8.33;;;6.30;;
21215;SDS011;10765;50.954;5.322;2023-05-07T11:51:43;8.67;;;6.77;;
21215;SDS011;10765;50.954;5.322;2023-05-07T11:54:11;8.97;;;6.17;;
21215;SDS011;10765;50.954;5.322;2023-05-07T11:56:43;8.47;;;5.60;;
21215;SDS011;10765;50.954;5.322;2023-05-07T11:59:12;7.90;;;6.57;;
21215;SDS011;10765;50.954;5.322;2023-05-07T12:01:44;9.30;;;6.93;;
21215;SDS011;10765;50.954;5.322;2023-05-07T12:04:12;8.37;;;5.93;;
21215;SDS011;10765;50.954;5.322;2023-05-07T12:06:40;7.77;;;6.53;;
21215;SDS011;10765;50.954;5.322;2023-05-07T12:09:07;9.27;;;6.30;;
21215;SDS011;10765;50.954;5.322;2023-05-07T12:11:36;9.43;;;6.00;;
21215;SDS011;10765;50.954;5.322;2023-05-07T12:14:05;8.23;;;5.97;;
21215;SDS011;10765;50.954;5.322;2023-05-07T12:16:32;6.87;;;5.63;;
21215;SDS011;10765;50.954;5.322;2023-05-07T12:19:00;7.93;;;6.10;;
21215;SDS011;10765;50.954;5.322;2023-05-07T12:21:27;7.13;;;4.93;;
21215;SDS011;10765;50.954;5.322;2023-05-07T12:23:55;6.97;;;5.20;;
21215;SDS011;10765;50.954;5.322;2023-05-07T12:26:22;8.67;;;4.93;;
21215;SDS011;10765;50.954;5.322;2023-05-07T12:28:50;8.53;;;5.93;;
21215;SDS011;10765;50.954;5.322;2023-05-07T12:31:17;12.77;;;8.87;;
21215;SDS011;10765;50.954;5.322;2023-05-07T12:33:44;8.70;;;6.30;;
21215;SDS011;10765;50.954;5.322;2023-05-07T12:36:12;5.57;;;4.50;;
21215;SDS011;10765;50.954;5.322;2023-05-07T12:38:39;7.33;;;4.83;;
21215;SDS011;10765;50.954;5.322;2023-05-07T12:41:09;8.77;;;4.90;;
21215;SDS011;10765;50.954;5.322;2023-05-07T12:43:37;6.83;;;4.60;;
21215;SDS011;10765;50.954;5.322;2023-05-07T12:46:05;5.83;;;4.00;;
21215;SDS011;10765;50.954;5.322;2023-05-07T12:48:32;7.50;;;4.73;;
21215;SDS011;10765;50.954;5.322;2023-05-07T12:51:00;5.20;;;4.50;;
21215;SDS011;10765;50.954;5.322;2023-05-07T12:53:28;6.30;;;4.00;;
21215;SDS011;10765;50.954;5.322;2023-05-07T12:55:56;6.40;;;4.03;;
21215;SDS011;10765;50.954;5.322;2023-05-07T12:58:26;5.73;;;4.10;;
21215;SDS011;10765;50.954;5.322;2023-05-07T13:00:55;6.03;;;3.53;;
21215;SDS011;10765;50.954;5.322;2023-05-07T13:03:26;5.23;;;3.90;;
21215;SDS011;10765;50.954;5.322;2023-05-07T13:05:58;5.10;;;3.30;;
21215;SDS011;10765;50.954;5.322;2023-05-07T13:08:29;7.23;;;4.10;;
21215;SDS011;10765;50.954;5.322;2023-05-07T13:10:57;6.77;;;4.03;;
21215;SDS011;10765;50.954;5.322;2023-05-07T13:13:29;5.00;;;4.30;;
21215;SDS011;10765;50.954;5.322;2023-05-07T13:15:56;6.93;;;4.43;;
21215;SDS011;10765;50.954;5.322;2023-05-07T13:18:24;6.50;;;4.57;;
21215;SDS011;10765;50.954;5.322;2023-05-07T13:20:52;6.47;;;4.20;;
21215;SDS011;10765;50.954;5.322;2023-05-07T13:23:19;6.47;;;4.33;;
21215;SDS011;10765;50.954;5.322;2023-05-07T13:25:46;5.33;;;3.70;;
21215;SDS011;10765;50.954;5.322;2023-05-07T13:28:12;6.27;;;3.90;;
21215;SDS011;10765;50.954;5.322;2023-05-07T13:30:41;6.43;;;4.00;;
21215;SDS011;10765;50.954;5.322;2023-05-07T13:33:08;4.67;;;3.50;;
21215;SDS011;10765;50.954;5.322;2023-05-07T13:35:35;5.53;;;3.20;;
21215;SDS011;10765;50.954;5.322;2023-05-07T13:38:02;5.53;;;3.40;;
21215;SDS011;10765;50.954;5.322;2023-05-07T13:40:29;3.07;;;2.00;;
21215;SDS011;10765;50.954;5.322;2023-05-07T13:42:57;4.00;;;2.40;;
21215;SDS011;10765;50.954;5.322;2023-05-07T13:45:25;5.70;;;3.07;;
21215;SDS011;10765;50.954;5.322;2023-05-07T13:47:56;4.43;;;2.93;;
21215;SDS011;10765;50.954;5.322;2023-05-07T13:50:24;5.50;;;2.93;;
21215;SDS011;10765;50.954;5.322;2023-05-07T13:52:52;5.23;;;3.00;;
21215;SDS011;10765;50.954;5.322;2023-05-07T13:55:19;8.03;;;3.60;;
21215;SDS011;10765;50.954;5.322;2023-05-07T13:57:47;6.10;;;4.10;;
21215;SDS011;10765;50.954;5.322;2023-05-07T14:00:20;4.43;;;3.57;;
21215;SDS011;10765;50.954;5.322;2023-05-07T14:02:47;7.93;;;3.63;;
21215;SDS011;10765;50.954;5.322;2023-05-07T14:05:15;8.13;;;3.20;;
21215;SDS011;10765;50.954;5.322;2023-05-07T14:07:42;6.03;;;3.40;;
21215;SDS011;10765;50.954;5.322;2023-05-07T14:10:09;5.17;;;3.57;;
21215;SDS011;10765;50.954;5.322;2023-05-07T14:12:39;4.83;;;3.47;;
21215;SDS011;10765;50.954;5.322;2023-05-07T14:15:07;4.90;;;3.57;;
21215;SDS011;10765;50.954;5.322;2023-05-07T14:17:34;6.07;;;3.30;;
21215;SDS011;10765;50.954;5.322;2023-05-07T14:20:01;3.60;;;2.97;;
21215;SDS011;10765;50.954;5.322;2023-05-07T14:22:29;6.23;;;3.40;;
21215;SDS011;10765;50.954;5.322;2023-05-07T14:24:56;5.23;;;3.10;;
21215;SDS011;10765;50.954;5.322;2023-05-07T14:27:23;3.20;;;2.40;;
21215;SDS011;10765;50.954;5.322;2023-05-07T14:29:50;4.17;;;3.00;;
21215;SDS011;10765;50.954;5.322;2023-05-07T14:32:17;3.63;;;2.40;;
21215;SDS011;10765;50.954;5.322;2023-05-07T14:34:44;4.50;;;2.43;;
21215;SDS011;10765;50.954;5.322;2023-05-07T14:37:12;3.60;;;2.47;;
21215;SDS011;10765;50.954;5.322;2023-05-07T14:39:40;5.47;;;3.33;;
21215;SDS011;10765;50.954;5.322;2023-05-07T14:42:07;5.07;;;3.27;;
21215;SDS011;10765;50.954;5.322;2023-05-07T14:44:34;5.17;;;3.40;;
21215;SDS011;10765;50.954;5.322;2023-05-07T14:47:01;6.53;;;3.07;;
21215;SDS011;10765;50.954;5.322;2023-05-07T14:49:28;4.47;;;2.63;;
21215;SDS011;10765;50.954;5.322;2023-05-07T14:51:57;3.80;;;2.43;;
21215;SDS011;10765;50.954;5.322;2023-05-07T14:54:24;4.60;;;2.90;;
21215;SDS011;10765;50.954;5.322;2023-05-07T14:56:53;4.57;;;2.80;;
21215;SDS011;10765;50.954;5.322;2023-05-07T14:59:21;4.70;;;2.43;;
21215;SDS011;10765;50.954;5.322;2023-05-07T15:01:50;4.57;;;2.13;;
21215;SDS011;10765;50.954;5.322;2023-05-07T15:04:17;4.17;;;2.70;;